This is the latest recevied weather packets stored in our database for station/object EA1RCG-11. If no packets are shown the sender has not sent any weather packets the latest 10 day(s).
| Time | Temp. | Humidity | Pressure | Rain* | Wind** | Luminosity | Snow |
|---|---|---|---|---|---|---|---|
| 1787607430 | 21.11° C | 57% | 975 hPa | - | - | - | - |
| 1787605629 | 21.67° C | 56% | 974.8 hPa | - | - | - | - |
| 1787603829 | 21.67° C | 57% | 974.3 hPa | - | - | - | - |
| 1787602029 | 22.22° C | 56% | 973.9 hPa | - | - | - | - |
| 1787600229 | 22.22° C | 56% | 973.1 hPa | - | - | - | - |
| 1787598429 | 22.22° C | 56% | 972.5 hPa | - | - | - | - |
| 1787596629 | 22.78° C | 55% | 972 hPa | - | - | - | - |
| 1787594829 | 23.89° C | 54% | 971.6 hPa | - | - | - | - |
| 1787593029 | 24.44° C | 53% | 971.8 hPa | - | - | - | - |
| 1787591229 | 24.44° C | 53% | 971.9 hPa | - | - | - | - |
| 1787589429 | 23.89° C | 54% | 972 hPa | - | - | - | - |
| 1787587628 | 25° C | 53% | 972 hPa | - | - | - | - |
| 1787585828 | 25° C | 53% | 972.2 hPa | - | - | - | - |
| 1787584028 | 26.11° C | 52% | 972.4 hPa | - | - | - | - |
| 1787582228 | 27.22° C | 51% | 972.5 hPa | - | - | - | - |
| 1787580428 | 28.33° C | 49% | 972.4 hPa | - | - | - | - |
| 1787578628 | 28.89° C | 49% | 972 hPa | - | - | - | - |
| 1787576828 | 31.67° C | 45% | 971.7 hPa | - | - | - | - |
| 1787575028 | 30° C | 48% | 971.5 hPa | - | - | - | - |
| 1787573228 | 30° C | 49% | 971.3 hPa | - | - | - | - |
| 1787571428 | 31.67° C | 48% | 971.7 hPa | - | - | - | - |
| 1787569628 | 32.22° C | 49% | 971.9 hPa | - | - | - | - |
| 1787567827 | 52.22° C | 29% | 972.1 hPa | - | - | - | - |
| 1787566027 | 56.67° C | 26% | 972.6 hPa | - | - | - | - |
| 1787564227 | 36.11° C | 42% | 973.2 hPa | - | - | - | - |
* Rain since midnight (hover to see other rain measurements)
** Current wind speed in m/s (hover to see current wind gust speed)